Time;durP1;ratioP1;P1;durP2;ratioP2;P2;SDS_P1;SDS_P2;PMS_P1;PMS_P2;Temp;Humidity;BMP_temperature;BMP_pressure;BME280_temperature;BME280_humidity;BME280_pressure;Samples;Min_cycle;Max_cycle;Signal;HPM_P1;HPM_P2
2021/04/13 00:02:14;;;;;;;2.57;2.23;;;4.30;99.90;;;;;;5040172;28;20650;-61
2021/04/13 00:04:47;;;;;;;3.67;3.27;;;4.30;99.90;;;;;;5041995;28;20618;-60
2021/04/13 00:07:25;;;;;;;3.37;2.90;;;4.30;99.90;;;;;;5046223;28;20622;-60
2021/04/13 00:12:47;;;;;;;3.00;2.57;;;4.30;99.90;;;;;;5039942;28;20731;-60
2021/04/13 00:15:30;;;;;;;3.13;2.80;;;4.30;99.90;;;;;;5041502;28;21014;-60
2021/04/13 00:18:18;;;;;;;3.30;3.00;;;4.30;99.90;;;;;;5035002;28;20860;-61
2021/04/13 00:21:08;;;;;;;2.83;2.60;;;4.20;99.90;;;;;;5045402;28;21023;-60
2021/04/13 00:23:37;;;;;;;4.70;3.10;;;4.30;99.90;;;;;;5030031;28;20753;-59
2021/04/13 00:26:23;;;;;;;3.60;2.60;;;4.20;99.90;;;;;;5043369;28;20621;-60
2021/04/13 00:28:51;;;;;;;3.10;2.80;;;4.30;99.90;;;;;;5046424;28;20652;-59
2021/04/13 00:31:38;;;;;;;6.53;3.13;;;4.40;99.90;;;;;;5039791;28;20623;-60
2021/04/13 00:34:17;;;;;;;3.70;2.87;;;4.30;99.90;;;;;;5034681;28;20731;-61
2021/04/13 00:36:51;;;;;;;3.30;2.90;;;4.30;99.90;;;;;;5042808;28;20662;-60
2021/04/13 00:39:28;;;;;;;3.43;2.90;;;4.30;99.90;;;;;;5037493;28;20614;-60
2021/04/13 00:42:01;;;;;;;3.90;3.00;;;4.20;99.90;;;;;;5037170;28;20954;-61
2021/04/13 00:44:35;;;;;;;3.70;3.20;;;4.20;99.90;;;;;;5039631;28;20579;-60
2021/04/13 00:47:13;;;;;;;3.80;3.20;;;4.20;99.90;;;;;;5047540;28;21125;-60
2021/04/13 00:50:01;;;;;;;4.30;3.20;;;4.10;99.90;;;;;;5043264;28;20618;-61
2021/04/13 00:52:53;;;;;;;3.23;2.93;;;4.10;99.90;;;;;;5049172;28;20676;-60
2021/04/13 00:55:22;;;;;;;3.57;3.07;;;4.10;99.90;;;;;;5045119;28;20641;-60
2021/04/13 00:58:21;;;;;;;3.53;3.23;;;4.10;99.90;;;;;;5040935;28;20624;-60
2021/04/13 01:01:15;;;;;;;3.93;3.03;;;4.10;99.90;;;;;;5043081;28;20680;-60
2021/04/13 01:04:01;;;;;;;3.63;2.93;;;4.10;99.90;;;;;;5044730;28;20669;-61
2021/04/13 01:06:36;;;;;;;3.83;2.53;;;4.10;99.90;;;;;;5046312;28;20606;-59
2021/04/13 01:09:41;;;;;;;4.73;3.20;;;4.00;99.90;;;;;;5042435;28;20658;-61
2021/04/13 01:12:28;;;;;;;3.90;3.43;;;4.00;99.90;;;;;;5050864;28;20619;-59
2021/04/13 01:15:04;;;;;;;3.40;3.10;;;4.00;99.90;;;;;;5048978;28;20729;-59
2021/04/13 01:17:30;;;;;;;4.13;3.40;;;4.00;99.90;;;;;;5037304;28;20653;-59
2021/04/13 01:20:36;;;;;;;4.60;3.70;;;3.90;99.90;;;;;;5037450;28;20647;-60
2021/04/13 01:23:13;;;;;;;3.50;2.90;;;3.90;99.90;;;;;;5038911;28;20193;-59
2021/04/13 01:25:43;;;;;;;3.07;2.80;;;4.00;99.90;;;;;;5043348;28;20672;-60
2021/04/13 01:28:24;;;;;;;4.63;3.17;;;3.90;99.90;;;;;;5042862;28;20679;-61
2021/04/13 01:31:06;;;;;;;4.93;3.57;;;3.90;99.90;;;;;;5043195;28;20614;-61
2021/04/13 01:33:49;;;;;;;4.30;3.77;;;3.80;99.90;;;;;;5042537;28;20657;-60
2021/04/13 01:36:42;;;;;;;4.17;3.60;;;3.90;99.90;;;;;;5037778;28;22084;-61
2021/04/13 01:39:24;;;;;;;4.93;4.33;;;3.90;99.90;;;;;;5037210;28;20634;-61
2021/04/13 01:41:59;;;;;;;5.23;3.53;;;3.80;99.90;;;;;;5040790;28;20622;-61
2021/04/13 01:44:51;;;;;;;4.63;3.57;;;3.80;99.90;;;;;;5042683;28;20632;-59
2021/04/13 01:47:28;;;;;;;3.63;3.30;;;3.90;99.90;;;;;;5040624;28;20595;-60
2021/04/13 01:50:08;;;;;;;5.83;3.80;;;3.90;99.90;;;;;;5039271;28;20583;-61
2021/04/13 01:53:20;;;;;;;4.23;3.30;;;3.90;99.90;;;;;;5037751;28;21265;-60
2021/04/13 01:55:59;;;;;;;3.63;3.23;;;3.70;99.90;;;;;;5042904;28;21196;-60
2021/04/13 01:59:00;;;;;;;4.00;3.63;;;3.70;99.90;;;;;;5047028;28;21119;-60
2021/04/13 02:01:40;;;;;;;4.30;3.53;;;3.70;99.90;;;;;;5040137;28;21160;-60
2021/04/13 02:04:23;;;;;;;4.87;3.47;;;3.70;99.90;;;;;;5035502;28;20672;-61
2021/04/13 02:06:54;;;;;;;5.23;3.80;;;3.70;99.90;;;;;;5036411;28;21005;-60
2021/04/13 02:10:03;;;;;;;3.90;3.60;;;3.70;99.90;;;;;;5035288;28;20747;-60
2021/04/13 02:12:45;;;;;;;4.87;3.57;;;3.70;99.90;;;;;;5031610;28;20663;-59
2021/04/13 02:15:43;;;;;;;4.17;3.30;;;3.60;99.90;;;;;;5040158;28;20711;-60
2021/04/13 02:18:19;;;;;;;6.37;4.10;;;3.60;99.90;;;;;;5029588;28;21073;-61
2021/04/13 02:20:58;;;;;;;3.60;3.30;;;3.60;99.90;;;;;;5037353;28;21185;-60
2021/04/13 02:23:30;;;;;;;4.30;3.57;;;3.60;99.90;;;;;;5037515;28;20713;-59
2021/04/13 02:26:00;;;;;;;6.27;3.40;;;3.60;99.90;;;;;;5036157;28;20642;-60
2021/04/13 02:28:42;;;;;;;4.80;3.40;;;3.70;99.90;;;;;;5038847;28;20595;-60
2021/04/13 02:31:12;;;;;;;4.33;3.30;;;3.70;99.90;;;;;;5036976;28;20646;-61
2021/04/13 02:33:48;;;;;;;6.27;3.40;;;3.70;99.90;;;;;;5036233;28;20742;-60
2021/04/13 02:36:28;;;;;;;5.10;3.63;;;3.60;99.90;;;;;;5042621;28;21199;-60
2021/04/13 02:39:01;;;;;;;4.07;3.43;;;3.60;99.90;;;;;;5037360;28;21035;-60
2021/04/13 02:41:49;;;;;;;4.40;3.33;;;3.50;99.90;;;;;;5041166;28;20592;-60
2021/04/13 02:44:20;;;;;;;6.23;3.60;;;3.50;99.90;;;;;;5029542;28;20646;-60
2021/04/13 02:46:55;;;;;;;4.13;3.20;;;3.50;99.90;;;;;;5039661;28;20714;-61
2021/04/13 02:49:22;;;;;;;7.27;3.37;;;3.60;99.90;;;;;;5038080;28;20996;-59
2021/04/13 02:52:02;;;;;;;4.80;3.73;;;3.60;99.90;;;;;;5040371;28;20692;-61
2021/04/13 02:54:52;;;;;;;5.97;3.27;;;3.60;99.90;;;;;;5036397;28;21098;-60
2021/04/13 02:57:27;;;;;;;5.93;3.17;;;3.50;99.90;;;;;;5046455;28;20598;-60
2021/04/13 03:00:00;;;;;;;4.90;3.30;;;3.50;99.90;;;;;;5035162;28;20593;-60
2021/04/13 03:03:05;;;;;;;5.10;3.00;;;3.50;99.90;;;;;;5040688;28;20649;-60
2021/04/13 03:05:40;;;;;;;3.43;2.80;;;3.60;99.90;;;;;;5023390;28;20618;-60
2021/04/13 03:08:17;;;;;;;4.60;3.00;;;3.60;99.90;;;;;;5034290;28;20610;-60
2021/04/13 03:10:53;;;;;;;7.10;3.47;;;3.50;99.90;;;;;;5040732;28;20706;-59
2021/04/13 03:13:22;;;;;;;5.00;3.40;;;3.60;99.90;;;;;;5066010;22;21333;-63
2021/04/13 03:16:16;;;;;;;3.80;3.23;;;3.60;99.90;;;;;;5057399;28;20874;-63
2021/04/13 03:18:52;;;;;;;3.57;2.97;;;3.50;99.90;;;;;;5055999;28;20711;-63
2021/04/13 03:21:33;;;;;;;3.23;2.90;;;3.50;99.90;;;;;;5055891;28;21408;-63
2021/04/13 03:24:26;;;;;;;4.33;3.47;;;3.60;99.90;;;;;;5044744;28;21200;-63
2021/04/13 03:27:03;;;;;;;4.03;3.53;;;3.50;99.90;;;;;;5023805;28;20614;-62
2021/04/13 03:29:55;;;;;;;5.87;3.90;;;3.40;99.90;;;;;;5021004;28;20664;-63
2021/04/13 03:32:30;;;;;;;3.93;3.57;;;3.50;99.90;;;;;;5030575;28;20687;-63
2021/04/13 03:35:05;;;;;;;4.20;3.47;;;3.50;99.90;;;;;;5033538;28;20701;-63
2021/04/13 03:37:33;;;;;;;4.63;3.83;;;3.60;99.90;;;;;;5035168;28;20698;-64
2021/04/13 03:40:34;;;;;;;5.03;4.10;;;3.50;99.90;;;;;;5021326;28;20623;-62
2021/04/13 03:43:10;;;;;;;9.10;4.10;;;3.50;99.90;;;;;;5034702;28;20646;-64
2021/04/13 03:45:45;;;;;;;5.47;4.47;;;3.50;99.90;;;;;;5043852;28;21197;-63
2021/04/13 03:48:26;;;;;;;5.40;4.30;;;3.50;99.90;;;;;;5037763;28;20614;-63
2021/04/13 03:51:05;;;;;;;6.00;4.10;;;3.50;99.90;;;;;;5021387;28;20705;-63
2021/04/13 03:53:48;;;;;;;5.90;4.40;;;3.50;99.90;;;;;;5026479;28;20642;-63
2021/04/13 03:56:19;;;;;;;5.73;4.50;;;3.40;99.90;;;;;;5040178;28;20738;-64
2021/04/13 03:58:52;;;;;;;5.77;4.60;;;3.50;99.90;;;;;;5038689;28;20704;-63
2021/04/13 04:01:32;;;;;;;6.63;4.63;;;3.50;99.90;;;;;;5040110;28;20618;-63
2021/04/13 04:04:04;;;;;;;5.20;4.10;;;3.50;99.90;;;;;;5029910;28;21237;-64
2021/04/13 04:07:03;;;;;;;8.47;4.60;;;3.50;99.90;;;;;;5039952;28;20684;-63
2021/04/13 04:09:28;;;;;;;5.13;4.60;;;3.40;99.90;;;;;;5040780;28;20972;-64
2021/04/13 04:12:06;;;;;;;6.97;4.07;;;3.40;99.90;;;;;;5050180;28;20625;-63
2021/04/13 04:14:33;;;;;;;6.00;4.00;;;3.50;99.90;;;;;;5047262;28;20258;-64
2021/04/13 04:17:13;;;;;;;7.53;4.80;;;3.50;99.90;;;;;;5046056;28;20706;-64
2021/04/13 04:20:01;;;;;;;4.10;3.70;;;3.50;99.90;;;;;;5038651;28;20617;-64
2021/04/13 04:22:30;;;;;;;4.67;4.07;;;3.50;99.90;;;;;;5037222;28;20588;-64
2021/04/13 04:25:39;;;;;;;4.40;3.97;;;3.50;99.90;;;;;;5042332;28;20613;-63
2021/04/13 04:28:18;;;;;;;7.60;4.00;;;3.50;99.90;;;;;;5035276;28;20636;-63
2021/04/13 04:30:46;;;;;;;7.63;4.83;;;3.60;99.90;;;;;;5020855;28;20642;-63
2021/04/13 04:33:35;;;;;;;7.40;4.13;;;3.50;99.90;;;;;;5038360;28;20976;-63
2021/04/13 04:36:22;;;;;;;7.20;4.00;;;3.20;99.90;;;;;;5037808;28;20703;-62
2021/04/13 04:38:51;;;;;;;5.70;3.93;;;3.60;99.90;;;;;;5025852;28;20740;-64
2021/04/13 04:41:40;;;;;;;8.10;5.03;;;3.50;99.90;;;;;;5042610;28;20645;-64
2021/04/13 04:44:23;;;;;;;4.73;3.50;;;3.50;99.90;;;;;;5037675;28;20990;-63
2021/04/13 04:46:58;;;;;;;7.13;3.83;;;3.50;99.90;;;;;;5036681;28;20638;-61
2021/04/13 04:49:39;;;;;;;6.70;4.70;;;3.60;99.90;;;;;;5038300;28;20669;-64
2021/04/13 04:52:10;;;;;;;5.83;4.10;;;3.60;99.90;;;;;;5033374;28;21297;-64
2021/04/13 04:54:56;;;;;;;7.57;4.47;;;3.60;99.90;;;;;;5042821;28;21111;-64
2021/04/13 04:57:27;;;;;;;9.23;5.23;;;3.60;99.90;;;;;;5038880;28;21338;-63
2021/04/13 04:59:55;;;;;;;5.37;4.37;;;3.60;99.90;;;;;;5040409;28;20642;-62
2021/04/13 05:02:26;;;;;;;7.97;4.90;;;3.60;99.90;;;;;;5042154;28;20714;-62
2021/04/13 05:04:58;;;;;;;5.00;4.40;;;3.60;99.90;;;;;;5037120;28;20659;-61
2021/04/13 05:07:29;;;;;;;5.80;4.30;;;3.60;99.90;;;;;;5036236;28;20641;-62
2021/04/13 05:09:59;;;;;;;4.33;3.93;;;3.70;99.90;;;;;;5035575;28;20622;-63
2021/04/13 05:12:32;;;;;;;8.00;4.23;;;3.80;99.90;;;;;;5040823;28;20601;-63
2021/04/13 05:15:05;;;;;;;4.50;3.60;;;3.80;99.90;;;;;;5035906;28;20676;-61
2021/04/13 05:17:33;;;;;;;5.10;4.00;;;3.90;99.90;;;;;;5014162;28;21261;-63
2021/04/13 05:19:58;;;;;;;7.33;3.70;;;3.90;99.90;;;;;;5031097;28;20705;-64
2021/04/13 05:22:24;;;;;;;5.37;4.20;;;3.90;99.90;;;;;;5038506;28;20770;-63
2021/04/13 05:25:00;;;;;;;5.73;4.30;;;3.90;99.90;;;;;;5034591;28;20568;-62
2021/04/13 05:27:25;;;;;;;6.43;4.00;;;3.90;99.90;;;;;;5015565;28;20637;-63
2021/04/13 05:29:56;;;;;;;6.33;4.00;;;3.90;99.90;;;;;;5034681;28;20624;-63
2021/04/13 05:32:25;;;;;;;6.30;4.20;;;3.90;99.90;;;;;;5034674;28;20273;-61
2021/04/13 05:34:50;;;;;;;4.77;4.30;;;4.00;99.90;;;;;;5033232;28;20978;-62
2021/04/13 05:37:19;;;;;;;8.23;4.80;;;4.10;99.90;;;;;;5033786;28;20622;-67
2021/04/13 05:39:45;;;;;;;7.07;4.50;;;4.10;99.90;;;;;;5011493;28;20196;-65
2021/04/13 05:42:21;;;;;;;10.67;4.63;;;4.10;99.90;;;;;;5015464;28;20939;-66
2021/04/13 05:44:47;;;;;;;7.80;5.10;;;4.10;99.90;;;;;;5025386;28;21172;-66
2021/04/13 05:47:13;;;;;;;5.50;4.30;;;4.10;99.90;;;;;;5032409;28;20687;-65
2021/04/13 05:49:39;;;;;;;10.10;4.97;;;4.10;99.90;;;;;;5035137;28;20615;-65
2021/04/13 05:52:05;;;;;;;4.67;3.70;;;4.00;99.90;;;;;;5031860;28;20627;-66
2021/04/13 05:54:33;;;;;;;5.17;4.03;;;4.10;99.90;;;;;;5028699;28;20196;-65
2021/04/13 05:57:02;;;;;;;6.23;4.00;;;4.20;99.90;;;;;;5024479;28;20727;-66
2021/04/13 05:59:32;;;;;;;4.47;3.83;;;4.30;99.90;;;;;;5024568;28;21195;-66
2021/04/13 06:01:58;;;;;;;5.00;4.00;;;4.30;99.90;;;;;;5017601;28;20642;-65
2021/04/13 06:04:23;;;;;;;3.93;3.50;;;4.30;99.90;;;;;;5015740;28;20669;-66
2021/04/13 06:06:49;;;;;;;10.40;6.57;;;4.40;99.90;;;;;;5019362;28;20619;-66
2021/04/13 06:09:16;;;;;;;5.70;3.60;;;4.40;99.90;;;;;;5029390;28;20210;-66
2021/04/13 06:11:43;;;;;;;8.83;4.43;;;4.50;99.90;;;;;;5030840;28;20236;-65
2021/04/13 06:14:12;;;;;;;4.93;3.97;;;4.50;99.90;;;;;;5029714;28;22206;-65
2021/04/13 06:16:41;;;;;;;6.60;4.00;;;4.60;99.90;;;;;;5026599;28;20678;-66
2021/04/13 06:19:07;;;;;;;7.27;3.90;;;4.60;99.90;;;;;;5015655;28;20621;-67
2021/04/13 06:21:33;;;;;;;7.00;4.30;;;4.60;99.90;;;;;;5026501;28;20630;-66
2021/04/13 06:23:59;;;;;;;7.30;3.73;;;4.60;99.90;;;;;;5035459;28;20953;-66
2021/04/13 06:26:26;;;;;;;8.40;3.90;;;4.70;99.90;;;;;;5031141;28;20962;-67
2021/04/13 06:28:52;;;;;;;7.50;4.33;;;4.80;99.90;;;;;;5027401;28;20969;-65
2021/04/13 06:31:18;;;;;;;5.70;3.90;;;4.80;99.90;;;;;;5031385;28;20625;-67
2021/04/13 06:33:44;;;;;;;6.57;3.50;;;4.90;99.90;;;;;;5036279;28;20662;-66
2021/04/13 06:36:13;;;;;;;7.50;3.80;;;4.90;99.90;;;;;;5030332;28;20247;-65
2021/04/13 06:38:39;;;;;;;9.30;3.90;;;5.00;99.90;;;;;;5032589;28;20190;-65
2021/04/13 06:41:37;;;;;;;5.80;3.00;;;5.10;99.90;;;;;;5024442;28;20614;-66
2021/04/13 06:44:35;;;;;;;3.63;2.63;;;5.10;99.90;;;;;;5036472;28;20204;-65
2021/04/13 06:47:05;;;;;;;5.53;3.07;;;5.10;99.90;;;;;;5026700;28;20621;-66
2021/04/13 06:49:36;;;;;;;4.23;3.07;;;5.00;99.90;;;;;;5031034;28;20625;-68
2021/04/13 06:52:27;;;;;;;6.27;2.90;;;5.00;99.90;;;;;;5027952;28;23064;-66
2021/04/13 06:55:16;;;;;;;5.87;3.17;;;5.10;99.90;;;;;;5026900;28;20614;-66
2021/04/13 06:58:02;;;;;;;5.63;3.20;;;5.20;99.90;;;;;;5033170;28;20778;-65
2021/04/13 07:00:49;;;;;;;5.00;2.93;;;5.20;99.90;;;;;;5034439;28;20648;-66
2021/04/13 07:03:31;;;;;;;5.97;3.03;;;5.30;99.90;;;;;;5032948;28;20642;-66
2021/04/13 07:06:29;;;;;;;5.73;3.17;;;5.30;99.90;;;;;;5010130;28;20619;-69
2021/04/13 07:09:02;;;;;;;4.77;3.17;;;5.50;99.90;;;;;;4999470;28;20678;-67
2021/04/13 07:11:38;;;;;;;3.17;2.53;;;5.60;99.90;;;;;;5024659;28;20637;-64
2021/04/13 07:14:14;;;;;;;6.10;2.53;;;5.70;99.90;;;;;;5023027;28;20677;-66
2021/04/13 07:16:45;;;;;;;5.83;3.03;;;5.70;99.90;;;;;;5005700;28;20670;-65
2021/04/13 07:19:19;;;;;;;4.73;2.90;;;5.90;99.90;;;;;;5035464;28;20575;-66
2021/04/13 07:21:50;;;;;;;5.27;2.50;;;5.90;99.90;;;;;;5009601;28;20637;-65
2021/04/13 07:24:58;;;;;;;4.17;2.27;;;5.90;99.90;;;;;;5020904;28;20646;-67
2021/04/13 07:27:48;;;;;;;4.63;2.07;;;5.90;99.90;;;;;;4986677;28;20624;-65
2021/04/13 07:30:25;;;;;;;4.40;2.10;;;5.90;99.90;;;;;;5032123;28;21173;-65
2021/04/13 07:32:57;;;;;;;6.30;1.80;;;5.80;99.90;;;;;;5027102;28;20658;-68
2021/04/13 07:35:24;;;;;;;3.57;1.93;;;5.90;99.90;;;;;;5021908;28;20647;-66
2021/04/13 07:37:54;;;;;;;6.20;2.13;;;6.00;99.90;;;;;;5029587;28;20614;-65
2021/04/13 07:40:34;;;;;;;5.50;1.97;;;5.90;99.90;;;;;;5025851;28;20978;-64
2021/04/13 07:43:19;;;;;;;3.53;2.00;;;5.90;99.90;;;;;;5025262;28;20979;-65
2021/04/13 07:46:12;;;;;;;3.80;1.63;;;6.00;99.90;;;;;;5032253;28;21372;-65
2021/04/13 07:49:07;;;;;;;3.27;1.87;;;6.10;99.90;;;;;;5031040;28;20579;-66
2021/04/13 07:51:44;;;;;;;2.50;1.77;;;6.20;99.90;;;;;;5032390;28;20618;-65
2021/04/13 07:54:48;;;;;;;5.30;2.40;;;6.30;99.90;;;;;;5032106;28;20689;-65
2021/04/13 07:57:44;;;;;;;3.30;1.90;;;6.40;99.90;;;;;;5002600;28;20765;-65
2021/04/13 08:00:19;;;;;;;4.97;2.17;;;6.50;99.90;;;;;;5028972;28;20765;-67
2021/04/13 08:02:54;;;;;;;4.40;2.43;;;6.60;99.90;;;;;;5031480;28;20989;-66
2021/04/13 08:05:40;;;;;;;6.80;2.50;;;6.60;99.90;;;;;;5033033;28;20721;-70
2021/04/13 08:08:34;;;;;;;7.50;2.00;;;6.60;99.90;;;;;;5031583;28;20606;-69
2021/04/13 08:11:09;;;;;;;5.50;2.57;;;6.60;99.90;;;;;;5028162;28;20625;-65
2021/04/13 08:13:35;;;;;;;5.73;2.00;;;6.70;99.90;;;;;;5030910;28;20684;-66
2021/04/13 08:16:01;;;;;;;5.27;2.30;;;6.80;99.90;;;;;;5037818;28;20646;-66
2021/04/13 08:18:39;;;;;;;5.50;2.20;;;6.70;99.90;;;;;;5016173;28;20726;-67
2021/04/13 08:21:22;;;;;;;6.13;2.27;;;6.90;99.90;;;;;;5038596;28;20191;-67
2021/04/13 08:23:51;;;;;;;9.73;2.77;;;6.90;99.90;;;;;;5036810;28;20642;-68
2021/04/13 08:26:30;;;;;;;5.90;2.37;;;6.80;99.90;;;;;;5029465;28;20634;-68
2021/04/13 08:29:07;;;;;;;8.30;2.43;;;6.90;99.90;;;;;;5028511;28;20601;-66
2021/04/13 08:34:42;;;;;;;6.33;2.87;;;7.00;99.90;;;;;;5030618;28;20720;-68
2021/04/13 08:37:48;;;;;;;5.40;2.10;;;6.90;99.90;;;;;;5009365;28;20658;-68
2021/04/13 08:40:32;;;;;;;9.30;2.50;;;7.00;99.90;;;;;;5036228;28;20660;-65
2021/04/13 08:43:16;;;;;;;6.60;2.63;;;7.10;99.90;;;;;;5036202;28;20646;-68
2021/04/13 08:46:06;;;;;;;7.00;2.43;;;7.20;99.90;;;;;;5033974;28;20614;-64
2021/04/13 08:48:43;;;;;;;4.83;2.00;;;7.20;99.90;;;;;;5017087;28;20673;-65
2021/04/13 08:51:14;;;;;;;6.93;2.90;;;7.40;99.90;;;;;;5035415;28;20658;-67
2021/04/13 08:53:45;;;;;;;4.80;2.27;;;7.40;99.90;;;;;;5029578;28;21243;-66
2021/04/13 08:56:17;;;;;;;6.07;2.60;;;7.40;99.90;;;;;;5038621;28;20698;-66
2021/04/13 08:58:49;;;;;;;4.50;2.20;;;7.60;99.90;;;;;;5033644;28;20585;-67
2021/04/13 09:01:38;;;;;;;10.07;2.70;;;7.70;99.90;;;;;;5036821;28;20667;-65
2021/04/13 09:04:08;;;;;;;4.73;1.83;;;7.90;99.90;;;;;;5037904;28;20645;-66
2021/04/13 09:06:51;;;;;;;8.73;2.80;;;8.00;99.90;;;;;;5030561;28;20619;-65
2021/04/13 09:09:45;;;;;;;3.57;1.97;;;8.00;99.90;;;;;;5028777;28;20651;-66
2021/04/13 09:12:17;;;;;;;6.00;2.40;;;8.10;99.90;;;;;;5033829;28;20634;-66
2021/04/13 09:15:01;;;;;;;6.30;1.83;;;8.10;99.90;;;;;;5053153;22;20690;-66
2021/04/13 09:17:45;;;;;;;5.93;2.40;;;8.20;99.90;;;;;;5037222;28;20629;-64
2021/04/13 09:20:26;;;;;;;5.87;1.97;;;8.30;99.90;;;;;;5040776;28;20612;-66
2021/04/13 09:23:07;;;;;;;4.27;1.67;;;8.30;99.90;;;;;;5022239;28;20657;-65
2021/04/13 09:25:55;;;;;;;4.70;1.90;;;8.30;99.90;;;;;;5038521;28;20908;-66
2021/04/13 09:28:25;;;;;;;7.43;1.83;;;8.30;99.90;;;;;;5055630;28;20637;-66
2021/04/13 09:31:09;;;;;;;6.20;1.80;;;8.30;99.90;;;;;;5055166;28;20587;-64
2021/04/13 09:33:38;;;;;;;4.03;1.87;;;8.40;99.90;;;;;;5046409;28;20673;-65
2021/04/13 09:37:04;;;;;;;5.73;2.10;;;8.50;99.90;;;;;;5034700;28;20715;-66
2021/04/13 09:40:01;;;;;;;6.07;2.40;;;8.60;99.90;;;;;;4977364;28;20715;-66
2021/04/13 09:42:57;;;;;;;8.37;1.73;;;8.70;99.90;;;;;;4998896;28;20685;-64
2021/04/13 09:45:42;;;;;;;6.10;1.97;;;8.80;99.90;;;;;;5022331;28;20716;-64
2021/04/13 09:48:45;;;;;;;5.47;1.80;;;8.90;99.90;;;;;;5045583;28;20606;-64
2021/04/13 09:51:32;;;;;;;3.87;1.60;;;9.00;99.90;;;;;;5041153;28;20606;-66
2021/04/13 09:54:33;;;;;;;5.53;2.70;;;9.10;99.90;;;;;;5054315;28;21293;-65
2021/04/13 09:57:36;;;;;;;4.83;1.50;;;9.10;99.90;;;;;;5033395;28;20662;-65
2021/04/13 10:00:23;;;;;;;5.23;1.60;;;9.00;99.90;;;;;;5027345;28;21335;-65
2021/04/13 10:03:23;;;;;;;4.70;2.23;;;9.10;99.90;;;;;;5039685;28;20603;-65
2021/04/13 10:05:49;;;;;;;7.17;1.80;;;9.20;99.90;;;;;;5039691;28;21368;-65
2021/04/13 10:08:14;;;;;;;4.87;1.90;;;9.20;99.90;;;;;;5017644;28;21486;-64
2021/04/13 10:10:43;;;;;;;4.17;1.53;;;9.20;99.90;;;;;;5033510;28;21387;-62
2021/04/13 10:13:32;;;;;;;5.47;1.40;;;9.00;99.90;;;;;;5036771;28;20188;-64
2021/04/13 10:16:23;;;;;;;3.90;1.50;;;9.00;99.90;;;;;;5040494;28;20633;-64
2021/04/13 10:19:36;;;;;;;4.47;1.60;;;9.10;99.90;;;;;;5043144;28;20613;-63
2021/04/13 10:22:33;;;;;;;4.53;1.77;;;9.10;99.90;;;;;;5035545;28;20641;-63
2021/04/13 10:25:27;;;;;;;3.47;1.47;;;9.30;99.90;;;;;;5036378;28;20749;-64
2021/04/13 10:28:28;;;;;;;4.90;2.00;;;9.50;99.90;;;;;;5044208;28;21486;-64
2021/04/13 10:31:36;;;;;;;4.63;1.70;;;9.50;99.90;;;;;;5037391;28;20614;-65
2021/04/13 10:34:22;;;;;;;3.77;1.70;;;9.50;99.90;;;;;;5037392;28;20654;-65
2021/04/13 10:37:09;;;;;;;8.13;2.23;;;9.50;99.90;;;;;;5006124;28;20655;-64
2021/04/13 10:39:45;;;;;;;4.43;1.90;;;9.40;99.90;;;;;;5039818;28;20606;-65
2021/04/13 10:42:55;;;;;;;4.33;1.43;;;9.50;99.90;;;;;;5041466;28;20586;-65
2021/04/13 10:45:27;;;;;;;7.97;1.80;;;9.70;99.90;;;;;;5034981;28;21235;-65
2021/04/13 10:48:10;;;;;;;1.70;1.20;;;9.80;99.90;;;;;;5038880;28;20636;-64
2021/04/13 10:51:03;;;;;;;8.67;2.17;;;9.80;99.90;;;;;;5035129;28;20638;-64
2021/04/13 10:53:48;;;;;;;6.03;1.43;;;9.70;99.90;;;;;;5033025;28;20646;-64
2021/04/13 10:56:36;;;;;;;2.80;1.40;;;9.70;99.90;;;;;;5037698;28;20649;-64
2021/04/13 10:59:36;;;;;;;3.17;1.33;;;9.80;99.90;;;;;;5034190;28;20638;-64
2021/04/13 11:02:24;;;;;;;2.30;1.10;;;9.80;99.90;;;;;;5035440;28;20615;-65
2021/04/13 11:05:11;;;;;;;3.10;1.30;;;10.00;99.90;;;;;;5034510;28;20690;-65
2021/04/13 11:07:48;;;;;;;6.00;1.70;;;10.30;99.90;;;;;;5035623;28;20613;-64
2021/04/13 11:10:28;;;;;;;3.70;1.87;;;10.30;99.90;;;;;;5037433;28;20613;-64
2021/04/13 11:13:31;;;;;;;3.37;1.10;;;10.40;99.90;;;;;;5040208;28;20625;-64
2021/04/13 11:16:31;;;;;;;2.30;1.00;;;10.40;99.90;;;;;;5034164;28;20689;-64
2021/04/13 11:19:27;;;;;;;4.17;1.73;;;10.50;99.90;;;;;;5028930;28;20649;-63
2021/04/13 11:22:30;;;;;;;3.53;1.13;;;10.50;99.90;;;;;;5008251;28;21156;-64
2021/04/13 11:25:27;;;;;;;2.40;1.47;;;10.60;99.90;;;;;;5041179;28;20626;-63
2021/04/13 11:28:35;;;;;;;5.73;1.63;;;10.70;99.90;;;;;;5037343;28;20972;-65
2021/04/13 11:31:19;;;;;;;4.60;1.30;;;10.70;99.90;;;;;;5033638;28;20598;-65
2021/04/13 11:34:03;;;;;;;5.10;1.40;;;10.90;99.90;;;;;;5037936;28;20646;-65
2021/04/13 11:36:49;;;;;;;5.70;1.30;;;11.10;99.90;;;;;;5026588;28;20789;-64
2021/04/13 11:39:45;;;;;;;4.17;1.30;;;11.10;99.90;;;;;;5038211;28;20699;-65
2021/04/13 11:42:21;;;;;;;5.93;1.27;;;11.10;99.90;;;;;;5034249;28;21132;-65
2021/04/13 11:44:57;;;;;;;7.07;1.57;;;11.00;99.90;;;;;;5038577;28;21047;-66
2021/04/13 11:47:34;;;;;;;4.70;2.03;;;11.00;99.90;;;;;;5035923;28;20606;-64
2021/04/13 11:50:28;;;;;;;5.10;1.90;;;10.90;99.90;;;;;;5036277;28;21015;-65
2021/04/13 11:53:03;;;;;;;4.23;1.47;;;11.00;99.90;;;;;;5037177;28;21119;-66
2021/04/13 11:55:29;;;;;;;2.93;1.33;;;11.10;99.90;;;;;;5039536;28;21121;-64
2021/04/13 11:58:07;;;;;;;3.30;1.30;;;11.00;99.90;;;;;;5029703;28;21204;-65
2021/04/13 12:00:33;;;;;;;2.77;1.53;;;11.00;99.90;;;;;;5040728;28;21232;-65
2021/04/13 12:03:17;;;;;;;2.97;1.00;;;11.00;99.90;;;;;;5046071;28;21194;-65
2021/04/13 12:05:50;;;;;;;4.63;1.10;;;11.10;99.90;;;;;;5043807;28;21165;-65
2021/04/13 12:08:31;;;;;;;2.87;1.17;;;11.30;99.90;;;;;;5042690;28;20689;-65
2021/04/13 12:10:59;;;;;;;3.43;1.40;;;11.40;99.90;;;;;;5043589;28;20622;-65
2021/04/13 12:13:48;;;;;;;7.20;1.40;;;11.40;99.90;;;;;;5045068;28;20681;-65
2021/04/13 12:16:17;;;;;;;3.07;1.20;;;11.40;99.90;;;;;;5034192;28;21176;-66
2021/04/13 12:18:46;;;;;;;3.60;1.47;;;11.50;99.90;;;;;;5045958;28;20626;-64
2021/04/13 12:21:25;;;;;;;3.90;1.37;;;11.60;99.90;;;;;;5024537;28;20642;-65
2021/04/13 12:23:56;;;;;;;2.03;1.40;;;11.80;99.90;;;;;;5057466;28;20662;-64
2021/04/13 12:26:29;;;;;;;4.00;1.50;;;11.60;99.90;;;;;;5057604;28;20696;-65
2021/04/13 12:28:54;;;;;;;4.03;1.47;;;11.40;99.90;;;;;;5059856;28;20686;-64
2021/04/13 12:31:23;;;;;;;6.10;1.90;;;11.30;99.90;;;;;;5039299;28;20645;-65
2021/04/13 12:33:56;;;;;;;5.50;1.20;;;11.10;99.90;;;;;;5050608;28;20316;-64
2021/04/13 12:36:44;;;;;;;6.17;1.50;;;11.00;99.90;;;;;;5048108;28;20943;-65
2021/04/13 12:39:30;;;;;;;3.17;1.37;;;11.00;99.90;;;;;;5040704;28;21212;-65
2021/04/13 12:41:58;;;;;;;2.97;1.03;;;11.20;99.90;;;;;;5025219;28;20745;-66
2021/04/13 12:44:27;;;;;;;3.03;1.30;;;11.40;99.90;;;;;;5037897;28;20698;-64
2021/04/13 12:46:59;;;;;;;2.30;1.13;;;11.50;99.90;;;;;;5019284;28;20727;-63
2021/04/13 12:49:42;;;;;;;2.90;1.33;;;11.40;99.90;;;;;;5038261;28;20691;-65
2021/04/13 12:52:21;;;;;;;4.20;1.27;;;11.10;99.90;;;;;;5024884;28;21181;-64
2021/04/13 12:54:47;;;;;;;5.70;1.47;;;10.90;99.90;;;;;;5035505;28;20662;-63
2021/04/13 12:57:21;;;;;;;7.00;1.73;;;10.90;99.90;;;;;;5043170;28;20678;-64
2021/04/13 13:00:05;;;;;;;3.30;1.57;;;10.80;99.90;;;;;;5033195;28;20641;-65
2021/04/13 13:02:33;;;;;;;4.13;1.37;;;10.70;99.90;;;;;;5043511;28;21152;-62
2021/04/13 13:05:00;;;;;;;3.57;1.40;;;10.70;99.90;;;;;;5045296;28;20650;-64
2021/04/13 13:07:28;;;;;;;4.17;1.47;;;10.60;99.90;;;;;;5034425;28;20726;-63
2021/04/13 13:09:54;;;;;;;3.90;1.30;;;10.80;99.90;;;;;;5026955;28;20622;-63
2021/04/13 13:12:32;;;;;;;2.23;1.07;;;11.10;99.90;;;;;;5035851;28;20618;-64
2021/04/13 13:15:09;;;;;;;2.83;1.20;;;11.50;99.90;;;;;;5021897;28;21202;-64
2021/04/13 13:17:45;;;;;;;2.13;1.00;;;11.90;99.90;;;;;;5019551;28;20629;-64
2021/04/13 13:20:27;;;;;;;3.60;1.27;;;12.20;99.90;;;;;;5035494;28;22069;-64
2021/04/13 13:22:52;;;;;;;4.27;1.40;;;12.50;99.90;;;;;;5034852;28;20660;-64
2021/04/13 13:25:28;;;;;;;2.80;1.10;;;12.20;99.90;;;;;;5025026;28;20812;-64
2021/04/13 13:28:17;;;;;;;2.93;0.93;;;12.10;99.90;;;;;;5039506;28;20271;-63
2021/04/13 13:30:42;;;;;;;4.57;1.17;;;12.10;99.90;;;;;;5041303;28;20656;-67
2021/04/13 13:33:08;;;;;;;3.23;0.90;;;12.40;99.90;;;;;;5040377;28;20617;-63
2021/04/13 13:35:34;;;;;;;2.77;1.23;;;12.20;99.90;;;;;;5052665;28;20594;-63
2021/04/13 13:38:03;;;;;;;2.13;1.20;;;12.10;99.90;;;;;;5042185;28;20202;-65
2021/04/13 13:40:33;;;;;;;4.03;1.10;;;12.00;99.90;;;;;;5050043;28;20241;-63
2021/04/13 13:43:04;;;;;;;3.50;1.00;;;12.30;99.90;;;;;;5039373;28;20614;-64
2021/04/13 13:45:50;;;;;;;2.10;0.80;;;12.70;99.90;;;;;;5040252;28;20638;-65
2021/04/13 13:48:26;;;;;;;3.77;1.17;;;12.90;99.90;;;;;;5037665;28;20613;-64
2021/04/13 13:51:06;;;;;;;3.70;0.80;;;13.20;99.90;;;;;;5042558;28;20675;-64
2021/04/13 13:53:32;;;;;;;3.03;1.20;;;13.50;99.90;;;;;;5020930;28;21231;-65
2021/04/13 13:56:03;;;;;;;2.73;0.90;;;13.80;99.90;;;;;;5042175;28;20653;-65
2021/04/13 13:58:34;;;;;;;1.97;0.73;;;13.50;99.90;;;;;;5040142;28;20626;-65
2021/04/13 14:01:02;;;;;;;1.80;0.70;;;13.40;99.90;;;;;;5022704;28;20611;-65
2021/04/13 14:03:47;;;;;;;2.70;1.13;;;13.40;99.90;;;;;;5038671;28;20752;-63
2021/04/13 14:06:19;;;;;;;1.77;1.20;;;13.50;99.90;;;;;;5029516;28;20645;-64